• Join FlightAware (Why Join?)
  • Login
  • US Flag 
05:50AM EDT


 

Airport Tracker/Info


-or-


 

Live Flight TrackerFlight Track Log ✈ N498QS ✈ 01-Jun-2013 ✈ CYHM - KTTN

Flight Track Log - Related Links

Times and Time Zones

All times are in EDT time to prevent confusion due to time zone crossing. See the N498QS flight status page for this flight to view local times or setup timezone preferences in your user account.

Time Position Orientation Groundspeed Altitude Reporting Facility
EDT Latitude Longitude Course Direction KTS MPH feet Rate Location/Type
08:57PM 43.1667 -79.9000 228° Southwest 160 184 1,200  Level Toronto Center
08:58PM 43.1333 -79.9500 228° Southwest 160 184 3,500 2,220 Climbing Toronto Center
08:59PM 43.0667 -79.9333 170° South 250 288 5,700 2,940 Climbing Toronto Center
09:00PM 43.0667 -79.8000 90° East 320 368 9,400 2,820 Climbing Toronto Center
09:01PM 43.0500 -79.6833 101° East 340 391 11,400 2,520 Climbing Toronto Center
09:02PM 43.0333 -79.5167 98° East 390 449 14,500 2,580 Climbing Toronto Center
09:03PM 43.0167 -79.3833 100° East 410 472 16,600 2,040 Climbing Toronto Center
09:04PM 42.9833 -79.2167 105° East 420 483 18,600 1,980 Climbing Toronto Center
09:05PM 42.9667 -79.0333 97° East 430 495 20,600 1,740 Climbing Toronto Center
09:06PM 42.9500 -78.8833 99° East 440 506 22,100 1,200 Climbing Toronto Center
09:07PM 42.9333 -78.7167 98° East 450 518 23,100 1,080 Climbing Toronto Center
09:07PM 42.9347 -78.6975 84° East 447 514 23,500 1,320 Climbing Cleveland Center
09:08PM 42.8819 -78.5431 115° Southeast 447 514 24,800 1,200 Climbing Cleveland Center
09:09PM 42.8086 -78.4042 126° Southeast 441 507 26,000 1,080 Climbing Cleveland Center
09:10PM 42.7414 -78.2736 125° Southeast 458 527 27,000 480 Climbing Cleveland Center
09:11PM 42.6697 -78.1322 125° Southeast 458 527 27,000  Level Cleveland Center
09:12PM 42.5981 -77.9939 125° Southeast 458 527 27,000  Level Cleveland Center
09:14PM 42.4500 -77.6833 123° Southeast 460 529 27,000  Level Toronto Center
09:15PM 42.3833 -77.5500 124° Southeast 460 529 27,000  Level Toronto Center
09:16PM 42.3167 -77.4500 132° Southeast 460 529 27,000  Level Toronto Center
09:17PM 42.1833 -77.3167 143° Southeast 460 529 27,000  Level Toronto Center
09:18PM 42.1000 -77.2333 143° Southeast 450 518 27,000  Level Toronto Center
09:18PM 42.0953 -77.2325 173° South 459 528 27,000 -1,200 Level New York Center
09:19PM 41.9967 -77.1308 143° Southeast 459 528 25,500 -7,500 Descending New York Center
09:20PM 41.8922 -77.0206 142° Southeast 449 517 12,000 -3,180 Descending New York Center
09:21PM 41.8014 -76.9256 142° Southeast 431 496 19,200 2,040 Climbing New York Center
09:22PM 41.7122 -76.8342 143° Southeast 420 483 16,200 -2,640 Descending New York Center
09:23PM 41.6314 -76.7489 142° Southeast 407 468 14,000 -2,100 Descending New York Center
09:24PM 41.5561 -76.6703 142° Southeast 390 449 12,100 -1,080 Descending New York Center
09:25PM 41.4689 -76.5794 142° Southeast 378 435 11,900 -120 Descending New York Center
09:26PM 41.3853 -76.4975 144° Southeast 378 435 11,900  Level New York Center
09:27PM 41.3058 -76.4164 143° Southeast 373 429 11,900  Level New York Center
09:28PM 41.2344 -76.3414 142° Southeast 373 429 11,900  Level New York Center
09:29PM 41.1431 -76.2483 143° Southeast 373 429 12,000  Climbing New York Center
09:30PM 41.0636 -76.1650 142° Southeast 373 429 12,000  Level New York Center
09:31PM 40.9817 -76.0842 143° Southeast 373 429 12,000  Level New York Center
09:32PM 40.9100 -76.0125 143° Southeast 366 421 12,000  Level New York Center
09:33PM 40.8261 -75.9267 142° Southeast 373 429 12,000 -540 Level New York Center
09:34PM 40.7442 -75.8464 143° Southeast 349 402 11,000 -1,380 Descending New York Center
09:35PM 40.6764 -75.7786 143° Southeast 323 372 9,200 -1,800 Descending New York Center
09:36PM 40.6125 -75.7111 141° Southeast 304 350 7,500 -1,800 Descending New York Center
09:37PM 40.5806 -75.6267 116° Southeast 287 330 5,700 -1,260 Descending New York Center
09:38PM 40.5722 -75.5194 96° East 287 330 5,000 -360 Descending New York Center
09:39PM 40.5619 -75.4122 97° East 287 330 5,000  Level New York Center
09:40PM 40.5281 -75.3200 116° Southeast 279 321 5,000  Level New York Center
09:41PM 40.4858 -75.2297 122° Southeast 279 321 5,000 -60 Level New York Center
09:42PM 40.4411 -75.1369 122° Southeast 284 327 4,900 -540 Descending New York Center
09:43PM 40.4028 -75.0528 121° Southeast 279 321 4,000 -960 Descending New York Center
09:44PM 40.3764 -74.9719 113° Southeast 254 292 3,000 -540 Descending New York Center
09:45PM 40.3750 -74.8956 91° East 229 264 3,000 -180 Level New York Center
09:46PM 40.3547 -74.8181 109° East 210 242 2,700 -600 Descending New York Center
09:47PM 40.3333 -74.7681 119° Southeast 183 211 1,900 -900 Descending New York Center
09:48PM 40.3039 -74.7772 193° South 115 132 900 -780 Descending New York Center
09:49PM 40.2783 -74.7947 208° Southwest 110 127 400 3,960 Descending New York Center
09:50PM 40.2528 -74.8150 211° Southwest 110 127 9,000 8,400 Climbing New York Center